Time;durP1;ratioP1;P1;durP2;ratioP2;P2;SDS_P1;SDS_P2;PMS_P1;PMS_P2;Temp;Humidity;BMP_temperature;BMP_pressure;BME280_temperature;BME280_humidity;BME280_pressure;Samples;Min_cycle;Max_cycle;Signal;HPM_P1;HPM_P2
2021/07/12 00:02:16;;;;;;;0.70;0.70;;;15.40;99.90;;;-143.50;100.00;58913.53;4977250;28;21008;-74
2021/07/12 00:04:45;;;;;;;1.07;0.90;;;15.40;99.90;;;-143.50;100.00;58913.53;4978550;28;20439;-74
2021/07/12 00:07:12;;;;;;;0.73;0.70;;;15.40;99.90;;;-143.50;100.00;58913.53;4993663;28;20888;-75
2021/07/12 00:09:40;;;;;;;0.70;0.60;;;15.40;99.90;;;-143.50;100.00;58913.53;4995456;28;20865;-74
2021/07/12 00:12:08;;;;;;;0.70;0.70;;;15.40;99.90;;;-143.50;100.00;58913.53;5028218;28;20470;-74
2021/07/12 00:14:35;;;;;;;0.80;0.73;;;15.40;99.90;;;-143.50;100.00;58913.53;4991085;28;20490;-74
2021/07/12 00:17:03;;;;;;;0.73;0.67;;;15.40;99.90;;;-143.50;100.00;58913.53;4983772;28;20466;-74
2021/07/12 00:19:31;;;;;;;0.80;0.77;;;15.30;99.90;;;-143.50;100.00;58913.53;4995469;28;20436;-74
2021/07/12 00:22:00;;;;;;;0.90;0.90;;;15.30;99.90;;;-143.50;100.00;58913.53;5011433;28;20446;-74
2021/07/12 00:24:27;;;;;;;0.80;0.70;;;15.40;99.90;;;-143.50;100.00;58913.53;4996397;28;20456;-74
2021/07/12 00:26:55;;;;;;;0.80;0.80;;;15.30;99.90;;;-143.50;100.00;58913.53;4996343;28;20416;-74
2021/07/12 00:29:22;;;;;;;0.80;0.70;;;15.20;99.90;;;-143.50;100.00;58913.53;4993554;28;20435;-74
2021/07/12 00:31:50;;;;;;;0.70;0.70;;;15.20;99.90;;;-143.50;100.00;58913.53;4996158;28;20437;-74
2021/07/12 00:34:17;;;;;;;0.70;0.70;;;15.20;99.90;;;-143.50;100.00;58913.53;4994762;28;20440;-74
2021/07/12 00:36:45;;;;;;;0.70;0.70;;;15.30;99.90;;;-143.50;100.00;58913.53;4994715;28;20458;-74
2021/07/12 00:39:15;;;;;;;0.70;0.60;;;15.30;99.90;;;-143.50;100.00;58913.53;4994915;28;20475;-74
2021/07/12 00:41:43;;;;;;;0.70;0.70;;;15.40;99.90;;;-143.50;100.00;58913.53;4996415;28;20489;-74
2021/07/12 00:44:10;;;;;;;0.80;0.70;;;15.30;99.90;;;-143.50;100.00;58913.53;5026654;28;20438;-74
2021/07/12 00:46:39;;;;;;;0.70;0.60;;;15.30;99.90;;;-143.50;100.00;58913.53;4994981;28;20453;-74
2021/07/12 00:49:06;;;;;;;0.70;0.60;;;15.20;99.90;;;-143.50;100.00;58913.53;4993213;28;20461;-75
2021/07/12 00:51:34;;;;;;;0.70;0.70;;;15.20;99.90;;;-143.50;100.00;58913.53;4996481;28;20414;-74
2021/07/12 00:54:04;;;;;;;0.80;0.80;;;15.10;99.90;;;-143.50;100.00;58913.53;4994277;28;20475;-74
2021/07/12 00:56:35;;;;;;;0.80;0.70;;;15.10;99.90;;;-143.50;100.00;58913.53;5010417;28;21058;-74
2021/07/12 00:59:04;;;;;;;0.70;0.70;;;15.20;99.90;;;-143.50;100.00;58913.53;4992112;28;20459;-74
2021/07/12 01:01:32;;;;;;;0.70;0.70;;;15.20;99.90;;;-143.50;100.00;58913.53;4959487;28;20495;-74
2021/07/12 01:04:06;;;;;;;0.70;0.70;;;15.20;99.90;;;-143.50;100.00;58913.53;4974954;28;20433;-74
2021/07/12 01:06:36;;;;;;;0.80;0.80;;;15.10;99.90;;;-143.50;100.00;58913.53;4988435;28;20432;-74
2021/07/12 01:09:06;;;;;;;0.70;0.70;;;15.10;99.90;;;-143.50;100.00;58913.53;4991039;28;20491;-74
2021/07/12 01:11:42;;;;;;;0.70;0.60;;;15.10;99.90;;;-143.50;100.00;58913.53;4981382;28;20454;-74
2021/07/12 01:14:21;;;;;;;0.70;0.60;;;15.20;99.90;;;-143.50;100.00;58913.53;4995429;28;20413;-74
2021/07/12 01:17:17;;;;;;;0.80;0.70;;;15.30;99.90;;;-143.50;100.00;58913.53;5026827;28;20477;-74
2021/07/12 01:20:19;;;;;;;0.80;0.70;;;15.30;99.90;;;-143.50;100.00;58913.53;4992323;28;20558;-73
2021/07/12 01:23:12;;;;;;;0.83;0.83;;;15.30;99.90;;;-143.50;100.00;58913.53;4993843;28;20984;-74
2021/07/12 01:26:45;;;;;;;0.70;0.70;;;15.30;99.90;;;-143.50;100.00;58913.53;4991408;28;20523;-74
2021/07/12 01:29:26;;;;;;;0.70;0.63;;;15.30;99.90;;;-143.50;100.00;58913.53;4957710;28;20867;-74
2021/07/12 01:32:45;;;;;;;0.73;0.70;;;15.20;99.90;;;-143.50;100.00;58913.53;4990438;28;20474;-73
2021/07/12 01:35:24;;;;;;;0.80;0.80;;;15.30;99.90;;;-143.50;100.00;58913.53;4992324;28;20455;-74
2021/07/12 01:38:14;;;;;;;0.70;0.70;;;15.20;99.90;;;-143.50;100.00;58913.53;4993846;28;20974;-74
2021/07/12 01:41:10;;;;;;;0.70;0.70;;;15.10;99.90;;;-143.50;100.00;58913.53;4990551;28;20533;-74
2021/07/12 01:43:51;;;;;;;0.80;0.70;;;15.10;99.90;;;-143.50;100.00;58913.53;4991861;28;20751;-74
2021/07/12 01:46:31;;;;;;;0.73;0.70;;;15.00;99.90;;;-143.50;100.00;58913.53;4993333;28;20545;-74
2021/07/12 01:49:12;;;;;;;0.70;0.60;;;15.00;99.90;;;-143.50;100.00;58913.53;4993814;28;20501;-74
2021/07/12 01:51:58;;;;;;;0.80;0.70;;;15.00;99.90;;;-143.50;100.00;58913.53;4992864;28;20453;-74
2021/07/12 01:54:31;;;;;;;0.70;0.70;;;15.00;99.90;;;-143.50;100.00;58913.53;4993922;28;20853;-74
2021/07/12 01:57:07;;;;;;;0.80;0.70;;;15.00;99.90;;;-143.50;100.00;58913.53;4994571;28;20490;-73
2021/07/12 01:59:44;;;;;;;0.70;0.70;;;15.00;99.90;;;-143.50;100.00;58913.53;4992096;28;20432;-74
2021/07/12 02:02:14;;;;;;;0.80;0.70;;;15.00;99.90;;;-143.50;100.00;58913.53;5008613;28;20449;-74
2021/07/12 02:04:57;;;;;;;0.70;0.70;;;15.00;99.90;;;-143.50;100.00;58913.53;4993446;28;20450;-74
2021/07/12 02:07:27;;;;;;;0.70;0.70;;;15.00;99.90;;;-143.50;100.00;58913.53;4993203;28;20504;-74
2021/07/12 02:09:56;;;;;;;0.70;0.70;;;15.00;99.90;;;-143.50;100.00;58913.53;4986540;28;20471;-74
2021/07/12 02:12:27;;;;;;;0.70;0.60;;;15.00;99.90;;;-143.50;100.00;58913.53;4993309;28;20492;-74
2021/07/12 02:14:57;;;;;;;0.70;0.70;;;14.90;99.90;;;-143.50;100.00;58913.53;4993262;28;20458;-74
2021/07/12 02:17:30;;;;;;;0.80;0.80;;;14.90;99.90;;;-143.50;100.00;58913.53;4989456;28;20868;-74
2021/07/12 02:20:09;;;;;;;0.80;0.70;;;14.90;99.90;;;-143.50;100.00;58913.53;4992734;28;20444;-74
2021/07/12 02:22:39;;;;;;;0.70;0.70;;;14.90;99.90;;;-143.50;100.00;58913.53;4992652;28;20428;-74
2021/07/12 02:25:18;;;;;;;0.73;0.70;;;14.80;99.90;;;-143.50;100.00;58913.53;4992441;28;20781;-74
2021/07/12 02:27:49;;;;;;;0.70;0.60;;;14.80;99.90;;;-143.50;100.00;58913.53;4992694;28;20493;-74
2021/07/12 02:30:18;;;;;;;0.70;0.60;;;14.90;99.90;;;-143.50;100.00;58913.53;4994026;28;20988;-74
2021/07/12 02:32:47;;;;;;;0.70;0.70;;;14.90;99.90;;;-143.50;100.00;58913.53;4994558;28;20424;-74
2021/07/12 02:35:17;;;;;;;0.70;0.70;;;14.90;99.90;;;-143.50;100.00;58913.53;4975270;28;20450;-74
2021/07/12 02:37:49;;;;;;;0.70;0.63;;;14.90;99.90;;;-143.50;100.00;58913.53;4991087;28;20969;-73
2021/07/12 02:40:20;;;;;;;0.70;0.60;;;14.90;99.90;;;-143.50;100.00;58913.53;4973636;28;20485;-74
2021/07/12 02:42:52;;;;;;;0.70;0.60;;;14.90;99.90;;;-143.50;100.00;58913.53;4973520;28;20488;-74
2021/07/12 02:45:23;;;;;;;0.80;0.70;;;14.90;99.90;;;-143.50;100.00;58913.53;4973337;28;20434;-74
2021/07/12 02:47:54;;;;;;;0.70;0.67;;;14.90;99.90;;;-143.50;100.00;58913.53;4976916;28;20466;-74
2021/07/12 02:50:27;;;;;;;0.70;0.70;;;14.90;99.90;;;-143.50;100.00;58913.53;4993699;28;20478;-74
2021/07/12 02:53:04;;;;;;;0.70;0.70;;;14.90;99.90;;;-143.50;100.00;58913.53;4993769;28;20447;-74
2021/07/12 02:55:31;;;;;;;0.80;0.80;;;14.90;99.90;;;-143.50;100.00;58913.53;4993481;28;20472;-74
2021/07/12 02:58:00;;;;;;;0.73;0.70;;;14.90;99.90;;;-143.50;100.00;58913.53;4992793;28;20451;-74
2021/07/12 03:00:28;;;;;;;0.70;0.70;;;14.90;99.90;;;-143.50;100.00;58913.53;4993784;28;20445;-73
2021/07/12 03:02:55;;;;;;;0.70;0.70;;;15.10;99.90;;;-143.50;100.00;58913.53;4993555;28;20849;-74
2021/07/12 03:05:23;;;;;;;0.70;0.70;;;15.10;99.90;;;-143.50;100.00;58913.53;4992476;28;20463;-74
2021/07/12 03:08:05;;;;;;;0.70;0.67;;;15.10;99.90;;;-143.50;100.00;58913.53;4993441;28;20999;-74
2021/07/12 03:10:39;;;;;;;0.80;0.77;;;15.10;99.90;;;-143.50;100.00;58913.53;4994437;28;20412;-74
2021/07/12 03:13:14;;;;;;;0.70;0.70;;;15.10;99.90;;;-143.50;100.00;58913.53;4993477;28;20423;-74
2021/07/12 03:15:45;;;;;;;0.70;0.70;;;15.00;99.90;;;-143.50;100.00;58913.53;4991085;28;20535;-74
2021/07/12 03:18:22;;;;;;;0.80;0.80;;;15.00;99.90;;;-143.50;100.00;58913.53;4993965;28;20435;-74
2021/07/12 03:20:51;;;;;;;0.70;0.67;;;15.00;99.90;;;-143.50;100.00;58913.53;4991298;28;20461;-74
2021/07/12 03:23:22;;;;;;;0.80;0.77;;;15.00;99.90;;;-143.50;100.00;58913.53;4991089;28;21018;-74
2021/07/12 03:25:57;;;;;;;0.70;0.70;;;14.90;99.90;;;-143.50;100.00;58913.53;4993923;28;20418;-76
2021/07/12 03:28:26;;;;;;;0.80;0.80;;;14.90;99.90;;;-143.50;100.00;58913.53;4976085;28;20427;-76
2021/07/12 03:30:54;;;;;;;0.70;0.70;;;14.90;99.90;;;-143.50;100.00;58913.53;4993316;28;20431;-74
2021/07/12 03:33:24;;;;;;;0.77;0.77;;;14.80;99.90;;;-143.50;100.00;58913.53;5024887;28;20452;-76
2021/07/12 03:35:54;;;;;;;0.80;0.70;;;14.80;99.90;;;-143.50;100.00;58913.53;4992114;28;20449;-76
2021/07/12 03:38:24;;;;;;;0.80;0.70;;;14.90;99.90;;;-143.50;100.00;58913.53;4991667;28;20455;-76
2021/07/12 03:40:53;;;;;;;0.80;0.70;;;14.80;99.90;;;-143.50;100.00;58913.53;4992293;28;20468;-75
2021/07/12 03:43:23;;;;;;;0.70;0.70;;;14.80;99.90;;;-143.50;100.00;58913.53;4989558;28;20490;-75
2021/07/12 03:45:56;;;;;;;0.70;0.70;;;14.90;99.90;;;-143.50;100.00;58913.53;4976029;28;20450;-74
2021/07/12 03:48:45;;;;;;;0.70;0.70;;;14.90;99.90;;;-143.50;100.00;58913.53;4992412;28;20455;-76
2021/07/12 03:51:21;;;;;;;0.70;0.60;;;14.90;99.90;;;-143.50;100.00;58913.53;4991337;28;20485;-75
2021/07/12 03:53:53;;;;;;;0.70;0.60;;;14.90;99.90;;;-143.50;100.00;58913.53;4972361;28;20463;-75
2021/07/12 03:56:22;;;;;;;0.70;0.70;;;14.90;99.90;;;-143.50;100.00;58913.53;4984673;28;20471;-76
2021/07/12 03:58:50;;;;;;;0.80;0.80;;;14.90;99.90;;;-143.50;100.00;58913.53;4989153;28;20973;-76
2021/07/12 04:01:21;;;;;;;0.80;0.70;;;14.90;99.90;;;-143.50;100.00;58913.53;4993152;28;20958;-76
2021/07/12 04:03:51;;;;;;;0.70;0.70;;;14.90;99.90;;;-143.50;100.00;58913.53;4993251;28;20820;-76
2021/07/12 04:06:19;;;;;;;0.70;0.70;;;14.90;99.90;;;-143.50;100.00;58913.53;4992352;28;20496;-76
2021/07/12 04:08:47;;;;;;;0.70;0.70;;;14.90;99.90;;;-143.50;100.00;58913.53;4993035;28;20447;-76
2021/07/12 04:11:18;;;;;;;0.80;0.70;;;14.90;99.90;;;-143.50;100.00;58913.53;4992815;28;20530;-75
2021/07/12 04:13:47;;;;;;;0.70;0.70;;;15.00;99.90;;;-143.50;100.00;58913.53;4991817;28;20919;-76
2021/07/12 04:16:14;;;;;;;0.70;0.70;;;15.00;99.90;;;-143.50;100.00;58913.53;4989206;28;20471;-76
2021/07/12 04:18:42;;;;;;;0.80;0.70;;;15.00;99.90;;;-143.50;100.00;58913.53;4993474;28;21144;-75
2021/07/12 04:21:11;;;;;;;0.70;0.70;;;15.10;99.90;;;-143.50;100.00;58913.53;4995314;28;20429;-76
2021/07/12 04:23:38;;;;;;;0.70;0.70;;;15.10;99.90;;;-143.50;100.00;58913.53;4995150;28;20838;-76
2021/07/12 04:26:05;;;;;;;0.70;0.70;;;15.20;99.90;;;-143.50;100.00;58913.53;4979167;28;20451;-76
2021/07/12 04:28:34;;;;;;;0.70;0.60;;;15.20;99.90;;;-143.50;100.00;58913.53;4996208;28;21054;-75
2021/07/12 04:31:02;;;;;;;0.70;0.70;;;15.30;99.90;;;-143.50;100.00;58913.53;4995043;28;20441;-75
2021/07/12 04:33:30;;;;;;;0.70;0.60;;;15.40;99.90;;;-143.50;100.00;58913.53;4983705;28;20495;-76
2021/07/12 04:35:58;;;;;;;0.70;0.70;;;15.50;99.90;;;-143.50;100.00;58913.53;4992465;28;20458;-76
2021/07/12 04:38:25;;;;;;;0.70;0.70;;;15.60;99.90;;;-143.50;100.00;58913.53;4994834;28;20465;-76
2021/07/12 04:40:53;;;;;;;0.70;0.70;;;15.70;99.90;;;-143.50;100.00;58913.53;4996143;28;20856;-75
2021/07/12 04:43:22;;;;;;;0.70;0.70;;;15.70;99.90;;;-143.50;100.00;58913.53;4979040;28;20451;-76
2021/07/12 04:45:50;;;;;;;0.70;0.70;;;15.80;99.90;;;-143.50;100.00;58913.53;4996085;28;20487;-75
2021/07/12 04:48:18;;;;;;;0.70;0.70;;;15.80;99.90;;;-143.50;100.00;58913.53;4995026;28;20429;-76
2021/07/12 04:50:46;;;;;;;0.70;0.60;;;15.90;99.90;;;-143.50;100.00;58913.53;4981773;28;21009;-75
2021/07/12 04:53:14;;;;;;;0.70;0.70;;;15.90;99.90;;;-143.50;100.00;58913.53;4976057;28;20488;-76
2021/07/12 04:55:41;;;;;;;0.70;0.70;;;16.00;99.90;;;-143.50;100.00;58913.53;4975500;28;20469;-76
2021/07/12 04:58:09;;;;;;;0.73;0.70;;;16.00;99.90;;;-143.50;100.00;58913.53;4994443;28;20496;-76
2021/07/12 05:00:37;;;;;;;0.70;0.60;;;16.10;99.90;;;-143.50;100.00;58913.53;4995726;28;20491;-76
2021/07/12 05:03:07;;;;;;;0.70;0.60;;;16.10;99.90;;;-143.50;100.00;58913.53;5027442;28;20468;-76
2021/07/12 05:05:34;;;;;;;0.70;0.60;;;16.20;99.90;;;-143.50;100.00;58913.53;4996103;28;20443;-76
2021/07/12 05:08:02;;;;;;;0.70;0.70;;;16.30;99.90;;;-143.50;100.00;58913.53;5016833;28;20473;-75
2021/07/12 05:10:30;;;;;;;0.70;0.60;;;16.40;99.90;;;-143.50;100.00;58913.53;4985228;28;20895;-75
2021/07/12 05:12:57;;;;;;;0.70;0.63;;;16.40;99.90;;;-143.50;100.00;58913.53;4995737;28;20469;-75
2021/07/12 05:15:24;;;;;;;0.80;0.70;;;16.50;99.90;;;-143.50;100.00;58913.53;4994565;28;20696;-76
2021/07/12 05:17:54;;;;;;;0.80;0.70;;;16.60;99.90;;;-143.50;100.00;58913.53;4993648;28;20478;-76
2021/07/12 05:20:23;;;;;;;0.70;0.60;;;16.70;99.90;;;-143.50;100.00;58913.53;4994880;28;21031;-76
2021/07/12 05:22:51;;;;;;;0.70;0.60;;;16.70;99.90;;;-143.50;100.00;58913.53;4995514;28;20825;-76
2021/07/12 05:25:18;;;;;;;0.70;0.70;;;16.80;99.90;;;-143.50;100.00;58913.53;4986593;28;20453;-76
2021/07/12 05:27:48;;;;;;;0.80;0.70;;;16.90;99.90;;;-143.50;100.00;58913.53;4994027;28;20920;-75
2021/07/12 05:30:16;;;;;;;0.70;0.70;;;17.00;99.90;;;-143.50;100.00;58913.53;4993635;28;20948;-75
2021/07/12 05:32:44;;;;;;;0.80;0.70;;;17.10;99.90;;;-143.50;100.00;58913.53;4993786;28;20438;-75
2021/07/12 05:35:12;;;;;;;0.70;0.70;;;17.20;99.90;;;-143.50;100.00;58913.53;4994152;28;20445;-76
2021/07/12 05:37:41;;;;;;;0.70;0.67;;;17.30;99.90;;;-143.50;100.00;58913.53;4995153;28;20453;-76
2021/07/12 05:40:09;;;;;;;0.70;0.60;;;17.40;99.90;;;-143.50;100.00;58913.53;4994817;28;20427;-75
2021/07/12 05:42:37;;;;;;;0.70;0.60;;;17.50;99.90;;;-143.50;100.00;58913.53;4993255;28;20846;-75
2021/07/12 05:45:06;;;;;;;0.70;0.67;;;17.50;99.90;;;-143.50;100.00;58913.53;5009294;28;20454;-75
2021/07/12 05:47:34;;;;;;;0.70;0.70;;;17.60;99.90;;;-143.50;100.00;58913.53;4993902;28;21045;-75
2021/07/12 05:50:03;;;;;;;0.70;0.67;;;17.70;99.90;;;-143.50;100.00;58913.53;4977718;28;20454;-75
2021/07/12 05:52:32;;;;;;;0.70;0.60;;;17.80;99.90;;;-143.50;100.00;58913.53;4992424;28;20923;-75
2021/07/12 05:55:01;;;;;;;0.70;0.70;;;17.80;99.90;;;-143.50;100.00;58913.53;4993562;28;20510;-75
2021/07/12 05:57:28;;;;;;;0.70;0.60;;;17.90;99.90;;;-143.50;100.00;58913.53;4993340;28;21000;-75
2021/07/12 05:59:55;;;;;;;0.70;0.70;;;18.00;99.90;;;-143.50;100.00;58913.53;4992205;28;20441;-75
2021/07/12 06:02:23;;;;;;;0.70;0.60;;;18.10;99.90;;;-143.50;100.00;58913.53;4974160;28;20506;-76
2021/07/12 06:04:50;;;;;;;0.70;0.60;;;18.10;99.90;;;-143.50;100.00;58913.53;4974990;28;20847;-76
2021/07/12 06:07:18;;;;;;;0.70;0.63;;;18.20;99.90;;;-143.50;100.00;58913.53;4974259;28;20451;-76
2021/07/12 06:09:46;;;;;;;0.70;0.60;;;18.30;99.90;;;-143.50;100.00;58913.53;4987217;28;20516;-75
2021/07/12 06:12:15;;;;;;;0.80;0.70;;;18.40;99.90;;;-143.50;100.00;58913.53;4993381;28;20423;-75
2021/07/12 06:14:42;;;;;;;0.80;0.70;;;18.50;99.90;;;-143.50;100.00;58913.53;4994412;28;20511;-75
2021/07/12 06:17:10;;;;;;;1.10;1.00;;;18.60;99.90;;;-143.50;100.00;58913.53;4981784;28;20465;-75
2021/07/12 06:19:37;;;;;;;0.70;0.70;;;18.80;99.90;;;-143.50;100.00;58913.53;4993393;28;20497;-75
2021/07/12 06:22:05;;;;;;;0.77;0.70;;;18.90;99.90;;;-143.50;100.00;58913.53;4993132;28;20427;-75
2021/07/12 06:24:32;;;;;;;0.70;0.70;;;19.00;99.90;;;-143.50;100.00;58913.53;4983843;28;20505;-75
2021/07/12 06:27:00;;;;;;;0.80;0.70;;;19.00;99.90;;;-143.50;100.00;58913.53;5006395;28;20435;-75
2021/07/12 06:29:29;;;;;;;0.80;0.70;;;19.10;99.90;;;-143.50;100.00;58913.53;4978825;28;20837;-76
2021/07/12 06:31:57;;;;;;;0.80;0.70;;;19.20;99.90;;;-143.50;100.00;58913.53;4993062;28;20474;-76
2021/07/12 06:34:25;;;;;;;0.80;0.70;;;19.20;99.90;;;-143.50;100.00;58913.53;4994177;28;20435;-76
2021/07/12 06:36:53;;;;;;;0.70;0.70;;;19.20;99.90;;;-143.50;100.00;58913.53;4984491;28;20478;-75
2021/07/12 06:39:21;;;;;;;0.90;0.90;;;19.20;99.90;;;-143.50;100.00;58913.53;4985782;28;20459;-75
2021/07/12 06:41:48;;;;;;;0.70;0.60;;;19.30;99.90;;;-143.50;100.00;58913.53;4993503;28;20936;-76
2021/07/12 06:44:16;;;;;;;0.70;0.60;;;19.40;99.90;;;-143.50;100.00;58913.53;4993227;28;20450;-76
2021/07/12 06:46:50;;;;;;;0.80;0.70;;;19.30;99.90;;;-143.50;100.00;58913.53;4992719;28;20439;-76
2021/07/12 06:49:20;;;;;;;0.70;0.60;;;19.30;99.90;;;-143.50;100.00;58913.53;5016913;28;20440;-75
2021/07/12 06:51:49;;;;;;;0.80;0.70;;;19.40;99.90;;;-143.50;100.00;58913.53;4993302;28;20411;-75
2021/07/12 06:54:17;;;;;;;0.70;0.70;;;19.50;99.90;;;-143.50;100.00;58913.53;4992832;28;20959;-75
2021/07/12 06:56:44;;;;;;;0.80;0.80;;;19.50;99.90;;;-143.50;100.00;58913.53;4993081;28;20422;-75
2021/07/12 06:59:16;;;;;;;0.70;0.70;;;19.60;99.90;;;-143.50;100.00;58913.53;4991920;28;20435;-75
2021/07/12 07:01:46;;;;;;;0.80;0.70;;;19.60;99.90;;;-143.50;100.00;58913.53;4981932;28;20446;-75
2021/07/12 07:04:16;;;;;;;0.77;0.67;;;19.60;99.90;;;-143.50;100.00;58913.53;4991409;28;20439;-75
2021/07/12 07:06:43;;;;;;;0.80;0.80;;;19.70;99.90;;;-143.50;100.00;58913.53;4993374;28;20404;-75
2021/07/12 07:09:12;;;;;;;0.70;0.70;;;19.80;99.90;;;-143.50;100.00;58913.53;4991565;28;20470;-76
2021/07/12 07:11:39;;;;;;;0.70;0.60;;;19.80;99.90;;;-143.50;100.00;58913.53;4992421;28;20809;-75
2021/07/12 07:14:07;;;;;;;0.70;0.60;;;19.90;99.90;;;-143.50;100.00;58913.53;4992090;28;20446;-75
2021/07/12 07:16:35;;;;;;;0.80;0.70;;;20.00;99.90;;;-143.50;100.00;58913.53;4992460;28;20458;-75
2021/07/12 07:19:05;;;;;;;0.70;0.60;;;20.10;99.90;;;-143.50;100.00;58913.53;4984510;28;20521;-75
2021/07/12 07:21:33;;;;;;;0.87;0.87;;;20.20;99.90;;;-143.50;100.00;58913.53;4985194;28;20433;-75
2021/07/12 07:24:01;;;;;;;0.80;0.70;;;20.40;99.90;;;-143.50;100.00;58913.53;5008614;28;20600;-75
2021/07/12 07:26:28;;;;;;;0.70;0.70;;;20.60;99.90;;;-143.50;100.00;58913.53;4993637;28;20429;-75
2021/07/12 07:28:57;;;;;;;0.80;0.70;;;20.80;99.90;;;-143.50;100.00;58913.53;4991571;28;20482;-75
2021/07/12 07:31:25;;;;;;;1.20;1.10;;;21.10;99.90;;;-143.50;100.00;58913.53;4993538;28;20751;-75
2021/07/12 07:33:54;;;;;;;0.70;0.60;;;21.20;99.90;;;-143.50;100.00;58913.53;4991173;28;20427;-75
2021/07/12 07:36:21;;;;;;;0.80;0.80;;;21.30;99.90;;;-143.50;100.00;58913.53;4991498;28;20452;-75
2021/07/12 07:38:50;;;;;;;0.70;0.70;;;21.40;99.90;;;-143.50;100.00;58913.53;5024249;28;20485;-75
2021/07/12 07:41:19;;;;;;;0.80;0.70;;;21.40;99.90;;;-143.50;100.00;58913.53;4978245;28;20505;-74
2021/07/12 07:43:47;;;;;;;0.70;0.60;;;21.50;99.90;;;-143.50;100.00;58913.53;4993717;28;20890;-75
2021/07/12 07:46:14;;;;;;;0.80;0.70;;;21.70;99.90;;;-143.50;100.00;58913.53;4992822;28;20776;-75
2021/07/12 07:48:42;;;;;;;0.80;0.70;;;21.90;99.90;;;-143.50;100.00;58913.53;4991740;28;20428;-75
2021/07/12 07:51:09;;;;;;;0.70;0.60;;;22.10;99.90;;;-143.50;100.00;58913.53;4991881;28;20485;-74
2021/07/12 07:53:37;;;;;;;0.70;0.60;;;22.10;99.90;;;-143.50;100.00;58913.53;4995049;28;20532;-75
2021/07/12 07:56:06;;;;;;;0.80;0.80;;;22.20;99.90;;;-143.50;100.00;58913.53;5028507;28;20452;-75
2021/07/12 07:58:34;;;;;;;0.80;0.70;;;22.30;99.90;;;-143.50;100.00;58913.53;4996568;28;20436;-74
2021/07/12 08:01:01;;;;;;;0.80;0.80;;;22.40;99.90;;;-143.50;100.00;58913.53;4995772;28;20816;-75
2021/07/12 08:03:31;;;;;;;0.70;0.60;;;22.50;99.90;;;-143.50;100.00;58913.53;5012247;28;20487;-75
2021/07/12 08:06:48;;;;;;;0.80;0.70;;;22.60;99.90;;;-143.50;100.00;58913.53;4996166;28;20531;-76
2021/07/12 08:09:15;;;;;;;0.70;0.70;;;22.80;99.90;;;-143.50;100.00;58913.53;4987551;28;20425;-76
2021/07/12 08:11:46;;;;;;;0.80;0.70;;;22.90;99.90;;;-143.50;100.00;58913.53;4987667;28;21022;-75
2021/07/12 08:14:14;;;;;;;0.73;0.67;;;22.90;99.90;;;-143.50;100.00;58913.53;4979201;28;20421;-74
2021/07/12 08:16:41;;;;;;;0.80;0.70;;;23.00;99.90;;;-143.50;100.00;58913.53;4997183;28;20462;-75
2021/07/12 08:19:09;;;;;;;0.70;0.60;;;23.10;99.90;;;-143.50;100.00;58913.53;4995266;28;20505;-75
2021/07/12 08:21:37;;;;;;;0.80;0.60;;;23.40;99.90;;;-143.50;100.00;58913.53;4994965;28;20843;-75
2021/07/12 08:24:05;;;;;;;0.80;0.70;;;23.60;99.90;;;-143.50;100.00;58913.53;4992644;28;20477;-74
2021/07/12 08:26:32;;;;;;;0.70;0.60;;;23.80;99.90;;;-143.50;100.00;58913.53;4994494;28;20497;-75
2021/07/12 08:29:02;;;;;;;0.80;0.70;;;23.90;99.90;;;-143.50;100.00;58913.53;4992944;28;20422;-75
2021/07/12 08:31:31;;;;;;;0.77;0.60;;;24.00;99.90;;;-143.50;100.00;58913.53;4993508;28;20425;-75
2021/07/12 08:33:58;;;;;;;0.70;0.60;;;24.40;99.90;;;-143.50;100.00;58913.53;4990960;28;20431;-75
2021/07/12 08:36:26;;;;;;;0.80;0.80;;;24.60;99.90;;;-143.50;100.00;58913.53;4995535;28;20431;-75
2021/07/12 08:38:54;;;;;;;0.80;0.70;;;24.70;99.90;;;-143.50;100.00;58913.53;4995536;28;20581;-73
2021/07/12 08:41:22;;;;;;;0.80;0.60;;;24.90;99.90;;;-143.50;100.00;58913.53;5027733;28;20458;-76
2021/07/12 08:43:51;;;;;;;0.70;0.60;;;25.10;99.90;;;-143.50;100.00;58913.53;4995059;28;20906;-74
2021/07/12 08:46:21;;;;;;;0.70;0.60;;;25.40;99.90;;;-143.50;100.00;58913.53;4995040;28;20434;-74
2021/07/12 08:48:49;;;;;;;0.70;0.60;;;25.50;99.90;;;-143.50;100.00;58913.53;4995958;28;20449;-76
2021/07/12 08:51:17;;;;;;;0.70;0.50;;;25.80;99.90;;;-143.50;100.00;58913.53;4988430;28;20989;-75
2021/07/12 08:53:47;;;;;;;0.70;0.60;;;26.10;99.90;;;-143.50;100.00;58913.53;4995591;28;20517;-74
2021/07/12 08:56:15;;;;;;;0.70;0.60;;;26.10;99.90;;;-143.50;100.00;58913.53;4995770;28;20454;-73
2021/07/12 08:58:42;;;;;;;0.73;0.60;;;26.30;99.90;;;-143.50;100.00;58913.53;4995443;28;20498;-73
2021/07/12 09:01:10;;;;;;;0.70;0.50;;;26.50;99.90;;;-143.50;100.00;58913.53;4995464;28;20457;-73
2021/07/12 09:03:41;;;;;;;0.70;0.60;;;26.90;99.90;;;-143.50;100.00;58913.53;4994732;28;20868;-76
2021/07/12 09:06:10;;;;;;;1.07;0.97;;;27.20;99.90;;;-143.50;100.00;58913.53;4994712;28;20439;-74
2021/07/12 09:08:45;;;;;;;0.70;0.50;;;27.30;99.90;;;-143.50;100.00;58913.53;4990831;28;20470;-74
2021/07/12 09:11:24;;;;;;;0.70;0.50;;;27.20;99.90;;;-143.50;100.00;58913.53;4987449;28;20736;-73
2021/07/12 09:14:03;;;;;;;0.70;0.53;;;27.30;99.90;;;-143.50;100.00;58913.53;4996021;28;20507;-73
2021/07/12 09:16:43;;;;;;;0.70;0.50;;;27.30;99.90;;;-143.50;100.00;58913.53;4995159;28;20517;-73
2021/07/12 09:19:25;;;;;;;0.70;0.50;;;27.40;99.90;;;-143.50;100.00;58913.53;4995067;28;20549;-75
2021/07/12 09:21:59;;;;;;;0.70;0.53;;;27.20;96.70;;;-143.50;100.00;58913.53;4995758;28;20430;-73
2021/07/12 09:24:37;;;;;;;0.70;0.50;;;27.40;95.10;;;-143.50;100.00;58913.53;4989342;28;20573;-73
2021/07/12 09:27:13;;;;;;;0.70;0.50;;;27.90;88.50;;;-143.50;100.00;58913.53;4958848;28;20447;-73
2021/07/12 09:29:48;;;;;;;0.70;0.50;;;28.00;82.20;;;-143.50;100.00;58913.53;5017774;28;20450;-73
2021/07/12 09:32:18;;;;;;;0.70;0.50;;;28.20;76.80;;;-143.50;100.00;58913.53;4989366;28;20484;-72
2021/07/12 09:34:54;;;;;;;0.70;0.50;;;28.40;75.40;;;-143.50;100.00;58913.53;4998910;28;20430;-72
2021/07/12 09:37:21;;;;;;;0.70;0.50;;;28.00;72.60;;;-143.50;100.00;58913.53;4984266;28;20423;-72
2021/07/12 09:39:51;;;;;;;0.70;0.50;;;27.90;71.90;;;-143.50;100.00;58913.53;4985071;28;20471;-72
2021/07/12 09:42:21;;;;;;;0.70;0.50;;;28.30;71.60;;;-143.50;100.00;58913.53;4986158;28;20794;-73
2021/07/12 09:45:00;;;;;;;0.70;0.50;;;28.70;62.50;;;-143.50;100.00;58913.53;4993449;28;20446;-72
2021/07/12 09:47:29;;;;;;;0.80;0.60;;;29.20;70.10;;;-143.50;100.00;58913.53;4994985;28;20423;-73
2021/07/12 09:50:25;;;;;;;0.70;0.50;;;29.70;55.70;;;-143.50;100.00;58913.53;4994429;28;20986;-74
2021/07/12 09:52:59;;;;;;;0.70;0.50;;;29.00;58.20;;;-143.50;100.00;58913.53;4993833;28;20462;-73
2021/07/12 09:55:34;;;;;;;0.70;0.50;;;28.80;61.90;;;-143.50;100.00;58913.53;4994986;28;20415;-73
2021/07/12 09:58:10;;;;;;;0.70;0.50;;;29.10;59.60;;;-143.50;100.00;58913.53;4990826;28;20463;-73
2021/07/12 10:00:40;;;;;;;0.70;0.50;;;29.20;54.30;;;-143.50;100.00;58913.53;4991562;28;20452;-72
2021/07/12 10:03:08;;;;;;;0.70;0.50;;;29.10;52.00;;;-143.50;100.00;58913.53;4994327;28;20451;-73
2021/07/12 10:05:37;;;;;;;0.90;0.67;;;29.80;51.50;;;-143.50;100.00;58913.53;4982391;28;20447;-73
2021/07/12 10:08:06;;;;;;;0.80;0.50;;;30.50;46.30;;;-143.50;100.00;58913.53;4986966;28;20462;-73
2021/07/12 10:10:34;;;;;;;0.80;0.50;;;30.90;41.40;;;-143.50;100.00;58913.53;4993607;28;20442;-73
2021/07/12 10:13:06;;;;;;;1.20;1.00;;;31.50;41.10;;;-143.50;100.00;58913.53;4993327;28;20436;-73
2021/07/12 10:15:37;;;;;;;0.80;0.50;;;31.20;33.70;;;-143.50;100.00;58913.53;4996449;28;20415;-73
2021/07/12 10:18:06;;;;;;;0.80;0.50;;;31.30;35.20;;;-143.50;100.00;58913.53;4985031;28;20466;-73